Time;durP1;ratioP1;P1;durP2;ratioP2;P2;SDS_P1;SDS_P2;PMS_P1;PMS_P2;Temp;Humidity;BMP_temperature;BMP_pressure;BME280_temperature;BME280_humidity;BME280_pressure;Samples;Min_cycle;Max_cycle;Signal;HPM_P1;HPM_P2
2023/05/25 00:00:13;;;;;;;12.57;6.30;;;;;;;;;;5043226;28;20037;-61
2023/05/25 00:02:41;;;;;;;9.43;5.20;;;;;;;;;;5043696;28;20041;-61
2023/05/25 00:05:10;;;;;;;13.05;5.43;;;;;;;;;;5040766;28;20060;-62
2023/05/25 00:07:36;;;;;;;12.35;6.38;;;;;;;;;;5048153;28;20435;-62
2023/05/25 00:10:03;;;;;;;9.57;5.75;;;;;;;;;;5045883;28;20576;-62
2023/05/25 00:12:29;;;;;;;13.35;6.07;;;;;;;;;;5043219;28;20052;-61
2023/05/25 00:14:55;;;;;;;9.35;4.80;;;;;;;;;;5024716;28;20029;-61
2023/05/25 00:17:23;;;;;;;10.73;6.45;;;;;;;;;;5044356;28;20053;-62
2023/05/25 00:19:49;;;;;;;13.82;5.35;;;;;;;;;;5034808;28;20028;-62
2023/05/25 00:22:15;;;;;;;11.15;5.53;;;;;;;;;;5049117;28;20055;-62
2023/05/25 00:24:41;;;;;;;10.77;5.18;;;;;;;;;;5054662;28;20039;-62
2023/05/25 00:27:07;;;;;;;13.27;5.95;;;;;;;;;;5037562;28;20496;-61
2023/05/25 00:29:34;;;;;;;10.50;5.65;;;;;;;;;;5047229;28;20033;-61
2023/05/25 00:32:01;;;;;;;7.93;4.18;;;;;;;;;;5047261;28;20037;-61
2023/05/25 00:34:27;;;;;;;11.82;6.00;;;;;;;;;;5048396;28;20392;-61
2023/05/25 00:36:54;;;;;;;9.10;5.50;;;;;;;;;;5047513;28;20037;-62
2023/05/25 00:39:20;;;;;;;8.02;5.45;;;;;;;;;;5043161;28;20642;-62
2023/05/25 00:41:47;;;;;;;13.57;4.82;;;;;;;;;;5048782;28;20464;-62
2023/05/25 00:44:14;;;;;;;10.95;5.10;;;;;;;;;;5044245;28;20037;-61
2023/05/25 00:46:45;;;;;;;10.15;5.03;;;;;;;;;;5037551;28;20068;-60
2023/05/25 00:49:13;;;;;;;7.18;5.40;;;;;;;;;;5054313;28;20059;-61
2023/05/25 00:51:39;;;;;;;10.82;5.28;;;;;;;;;;5047871;28;20119;-61
2023/05/25 00:54:06;;;;;;;9.50;4.68;;;;;;;;;;5046287;28;20036;-61
2023/05/25 00:56:32;;;;;;;11.98;6.18;;;;;;;;;;5043770;28;20142;-61
2023/05/25 00:59:03;;;;;;;8.20;4.88;;;;;;;;;;5047411;28;20063;-60
2023/05/25 01:01:32;;;;;;;11.38;6.38;;;;;;;;;;5046050;28;20041;-62
2023/05/25 01:03:59;;;;;;;10.40;5.35;;;;;;;;;;5045244;28;20419;-62
2023/05/25 01:06:26;;;;;;;10.50;5.25;;;;;;;;;;5048121;28;20518;-62
2023/05/25 01:08:55;;;;;;;9.32;5.25;;;;;;;;;;5048530;28;20029;-62
2023/05/25 01:11:26;;;;;;;11.30;5.47;;;;;;;;;;5050898;28;20066;-62
2023/05/25 01:13:53;;;;;;;10.02;5.85;;;;;;;;;;5037783;28;20223;-61
2023/05/25 01:16:24;;;;;;;13.02;6.93;;;;;;;;;;5035929;28;20041;-61
2023/05/25 01:18:54;;;;;;;9.55;5.38;;;;;;;;;;5046974;28;20192;-60
2023/05/25 01:21:22;;;;;;;9.40;5.53;;;;;;;;;;5047906;28;20078;-61
2023/05/25 01:23:58;;;;;;;12.18;6.05;;;;;;;;;;5037984;28;20051;-61
2023/05/25 01:26:26;;;;;;;11.65;6.28;;;;;;;;;;5046243;28;20461;-61
2023/05/25 01:28:52;;;;;;;9.00;5.65;;;;;;;;;;5047089;28;20045;-61
2023/05/25 01:31:21;;;;;;;11.00;6.43;;;;;;;;;;5039296;28;20029;-61
2023/05/25 01:33:50;;;;;;;7.90;4.68;;;;;;;;;;5043065;28;20042;-61
2023/05/25 01:36:16;;;;;;;10.98;5.55;;;;;;;;;;5040077;28;20099;-61
2023/05/25 01:38:42;;;;;;;12.93;5.65;;;;;;;;;;5047444;28;20106;-61
2023/05/25 01:41:08;;;;;;;11.65;6.53;;;;;;;;;;5046457;28;20491;-62
2023/05/25 01:43:34;;;;;;;10.57;5.95;;;;;;;;;;5047687;28;20533;-61
2023/05/25 01:46:13;;;;;;;9.55;5.72;;;;;;;;;;5044345;28;20534;-61
2023/05/25 01:48:47;;;;;;;10.45;6.22;;;;;;;;;;5048810;28;20045;-61
2023/05/25 01:51:39;;;;;;;14.13;5.90;;;;;;;;;;5046991;28;20037;-61
2023/05/25 01:54:15;;;;;;;9.43;5.75;;;;;;;;;;5041786;28;20049;-60
2023/05/25 01:56:45;;;;;;;9.30;6.35;;;;;;;;;;5034984;28;20412;-61
2023/05/25 01:59:13;;;;;;;11.23;6.00;;;;;;;;;;5039786;28;20045;-62
2023/05/25 02:01:40;;;;;;;8.75;5.85;;;;;;;;;;5043718;28;20107;-62
2023/05/25 02:04:06;;;;;;;12.05;6.80;;;;;;;;;;5040219;28;20045;-62
2023/05/25 02:06:32;;;;;;;12.80;6.72;;;;;;;;;;5039078;28;20048;-62
2023/05/25 02:08:59;;;;;;;11.48;6.45;;;;;;;;;;5047660;28;20455;-61
2023/05/25 02:11:25;;;;;;;9.63;5.40;;;;;;;;;;5046375;28;20045;-62
2023/05/25 02:13:51;;;;;;;9.70;6.55;;;;;;;;;;5044605;28;20053;-62
2023/05/25 02:16:17;;;;;;;13.25;6.93;;;;;;;;;;5039194;28;20038;-62
2023/05/25 02:18:44;;;;;;;11.38;6.60;;;;;;;;;;5048595;28;20379;-61
2023/05/25 02:21:11;;;;;;;12.93;6.95;;;;;;;;;;5050030;28;20041;-61
2023/05/25 02:23:37;;;;;;;15.85;7.47;;;;;;;;;;5044610;28;20061;-62
2023/05/25 02:26:03;;;;;;;13.15;7.07;;;;;;;;;;5040831;28;20033;-63
2023/05/25 02:28:29;;;;;;;13.95;7.50;;;;;;;;;;5051889;28;20037;-62
2023/05/25 02:30:55;;;;;;;11.55;6.90;;;;;;;;;;5043911;28;20484;-62
2023/05/25 02:33:21;;;;;;;10.07;7.40;;;;;;;;;;5044682;28;20033;-62
2023/05/25 02:35:48;;;;;;;15.57;6.93;;;;;;;;;;5041037;28;20522;-63
2023/05/25 02:38:15;;;;;;;14.65;7.00;;;;;;;;;;5051035;28;20055;-62
2023/05/25 02:40:41;;;;;;;12.77;7.72;;;;;;;;;;5049465;28;20107;-62
2023/05/25 02:43:07;;;;;;;12.57;6.90;;;;;;;;;;5042212;28;20118;-62
2023/05/25 02:45:33;;;;;;;11.07;7.10;;;;;;;;;;5039817;28;20086;-63
2023/05/25 02:47:59;;;;;;;11.13;7.38;;;;;;;;;;5050823;28;20057;-62
2023/05/25 02:50:26;;;;;;;10.88;6.82;;;;;;;;;;5047085;28;20047;-62
2023/05/25 02:52:52;;;;;;;11.75;6.57;;;;;;;;;;5050516;28;20052;-62
2023/05/25 02:55:18;;;;;;;12.32;7.45;;;;;;;;;;5035906;28;20048;-62
2023/05/25 02:57:44;;;;;;;13.70;7.15;;;;;;;;;;5049022;28;20041;-62
2023/05/25 03:00:11;;;;;;;11.73;7.40;;;;;;;;;;5044244;28;20044;-63
2023/05/25 03:02:37;;;;;;;10.98;7.28;;;;;;;;;;5049343;28;20064;-62
2023/05/25 03:05:03;;;;;;;12.48;7.13;;;;;;;;;;5049435;28;20443;-62
2023/05/25 03:07:29;;;;;;;10.55;7.47;;;;;;;;;;5043928;28;20036;-61
2023/05/25 03:09:56;;;;;;;12.45;8.23;;;;;;;;;;5051087;28;20042;-62
2023/05/25 03:12:22;;;;;;;15.25;8.15;;;;;;;;;;5035603;28;20042;-62
2023/05/25 03:14:49;;;;;;;14.23;6.90;;;;;;;;;;5051903;28;20041;-62
2023/05/25 03:17:15;;;;;;;17.55;7.35;;;;;;;;;;5046300;28;20127;-61
2023/05/25 03:19:41;;;;;;;11.95;7.10;;;;;;;;;;5046353;28;20116;-62
2023/05/25 03:22:07;;;;;;;10.25;6.60;;;;;;;;;;5039603;28;20045;-62
2023/05/25 03:24:33;;;;;;;10.95;6.85;;;;;;;;;;5044527;28;20051;-62
2023/05/25 03:27:00;;;;;;;14.43;7.70;;;;;;;;;;5046281;28;20082;-62
2023/05/25 03:29:27;;;;;;;10.90;7.32;;;;;;;;;;5043008;28;20068;-61
2023/05/25 03:31:53;;;;;;;10.27;7.50;;;;;;;;;;5046443;28;20555;-62
2023/05/25 03:34:19;;;;;;;17.67;9.00;;;;;;;;;;5051931;28;20248;-62
2023/05/25 03:36:46;;;;;;;12.75;7.97;;;;;;;;;;5045136;28;20124;-62
2023/05/25 03:39:12;;;;;;;11.45;7.22;;;;;;;;;;5044576;28;20041;-62
2023/05/25 03:41:38;;;;;;;13.05;7.28;;;;;;;;;;5044686;28;20390;-61
2023/05/25 03:44:04;;;;;;;10.23;6.15;;;;;;;;;;5042405;28;20140;-62
2023/05/25 03:46:31;;;;;;;12.15;6.72;;;;;;;;;;5042761;28;20057;-62
2023/05/25 03:48:57;;;;;;;12.52;7.97;;;;;;;;;;5036410;28;20044;-61
2023/05/25 03:51:23;;;;;;;8.57;7.05;;;;;;;;;;5043941;28;20110;-62
2023/05/25 03:53:49;;;;;;;14.77;7.97;;;;;;;;;;5045433;28;20037;-62
2023/05/25 03:56:15;;;;;;;10.27;7.22;;;;;;;;;;5049174;28;20033;-62
2023/05/25 03:58:41;;;;;;;10.55;7.75;;;;;;;;;;5039316;28;20459;-62
2023/05/25 04:01:09;;;;;;;13.38;7.57;;;;;;;;;;5048581;28;20099;-62
2023/05/25 04:03:35;;;;;;;10.75;7.03;;;;;;;;;;5045429;28;20222;-62
2023/05/25 04:06:01;;;;;;;16.60;8.85;;;;;;;;;;5041077;28;20481;-62
2023/05/25 04:08:28;;;;;;;12.98;7.50;;;;;;;;;;5049467;28;20368;-62
2023/05/25 04:10:55;;;;;;;13.32;7.07;;;;;;;;;;5049377;28;20071;-62
2023/05/25 04:13:21;;;;;;;11.95;8.02;;;;;;;;;;5033670;28;20499;-62
2023/05/25 04:15:47;;;;;;;12.85;7.43;;;;;;;;;;5035385;28;20048;-61
2023/05/25 04:18:13;;;;;;;8.90;6.72;;;;;;;;;;5045119;28;20036;-62
2023/05/25 04:20:39;;;;;;;13.85;7.00;;;;;;;;;;5042601;28;20041;-61
2023/05/25 04:23:06;;;;;;;12.30;7.65;;;;;;;;;;5036660;28;20079;-62
2023/05/25 04:25:32;;;;;;;11.20;7.25;;;;;;;;;;5032619;28;20571;-62
2023/05/25 04:27:58;;;;;;;11.80;7.82;;;;;;;;;;5041049;28;20430;-62
2023/05/25 04:30:24;;;;;;;10.35;6.75;;;;;;;;;;5037355;28;20024;-63
2023/05/25 04:32:50;;;;;;;13.10;7.75;;;;;;;;;;5037143;28;20543;-63
2023/05/25 04:35:19;;;;;;;14.25;7.03;;;;;;;;;;5044254;28;20047;-62
2023/05/25 04:37:47;;;;;;;9.40;6.72;;;;;;;;;;5042713;28;20064;-63
2023/05/25 04:40:13;;;;;;;13.13;7.82;;;;;;;;;;5038363;28;20041;-62
2023/05/25 04:42:43;;;;;;;12.30;7.53;;;;;;;;;;5035951;28;20100;-62
2023/05/25 04:45:10;;;;;;;10.70;6.78;;;;;;;;;;5044531;28;20245;-62
2023/05/25 04:47:39;;;;;;;9.80;7.47;;;;;;;;;;5046567;28;20052;-62
2023/05/25 04:50:07;;;;;;;11.95;7.78;;;;;;;;;;5040890;28;20123;-62
2023/05/25 04:52:33;;;;;;;12.15;6.93;;;;;;;;;;5035142;28;20045;-61
2023/05/25 04:54:59;;;;;;;15.05;6.85;;;;;;;;;;5045230;28;20115;-63
2023/05/25 04:57:27;;;;;;;14.57;7.88;;;;;;;;;;5047274;28;20385;-63
2023/05/25 04:59:53;;;;;;;14.45;7.80;;;;;;;;;;5041871;28;20120;-62
2023/05/25 05:02:19;;;;;;;12.85;8.38;;;;;;;;;;5021803;28;20124;-63
2023/05/25 05:04:45;;;;;;;16.77;6.35;;;;;;;;;;5045763;28;20040;-63
2023/05/25 05:07:12;;;;;;;12.45;7.30;;;;;;;;;;5045034;28;20158;-62
2023/05/25 05:09:38;;;;;;;12.05;7.97;;;;;;;;;;5047312;28;20036;-62
2023/05/25 05:12:05;;;;;;;16.45;8.10;;;;;;;;;;5040749;28;20041;-62
2023/05/25 05:14:31;;;;;;;11.07;6.95;;;;;;;;;;5042473;28;20327;-63
2023/05/25 05:16:57;;;;;;;9.95;7.03;;;;;;;;;;5048480;28;20072;-63
2023/05/25 05:19:23;;;;;;;21.13;8.60;;;;;;;;;;5046864;28;20048;-62
2023/05/25 05:21:50;;;;;;;14.00;7.15;;;;;;;;;;5048372;28;20037;-63
2023/05/25 05:24:16;;;;;;;13.15;8.52;;;;;;;;;;5047939;28;20136;-61
2023/05/25 05:26:42;;;;;;;13.80;7.63;;;;;;;;;;5049667;28;20037;-61
2023/05/25 05:29:08;;;;;;;15.57;8.38;;;;;;;;;;5043285;28;20038;-62
2023/05/25 05:31:35;;;;;;;18.42;9.10;;;;;;;;;;5030833;28;20128;-62
2023/05/25 05:34:01;;;;;;;17.67;9.77;;;;;;;;;;5046558;28;20044;-61
2023/05/25 05:36:28;;;;;;;18.58;8.68;;;;;;;;;;5045057;28;20056;-62
2023/05/25 05:38:54;;;;;;;17.10;8.68;;;;;;;;;;5047194;28;20045;-62
2023/05/25 05:41:22;;;;;;;18.85;9.13;;;;;;;;;;5047598;28;20056;-62
2023/05/25 05:43:48;;;;;;;20.55;9.75;;;;;;;;;;5046871;28;20119;-62
2023/05/25 05:46:14;;;;;;;18.17;9.20;;;;;;;;;;5041592;28;20494;-63
2023/05/25 05:48:41;;;;;;;14.20;8.38;;;;;;;;;;5041230;28;20500;-63
2023/05/25 05:51:07;;;;;;;21.08;9.18;;;;;;;;;;5043011;28;20163;-63
2023/05/25 05:53:34;;;;;;;21.63;8.93;;;;;;;;;;5048169;28;20456;-62
2023/05/25 05:56:00;;;;;;;15.80;9.38;;;;;;;;;;5047230;28;20036;-63
2023/05/25 05:58:27;;;;;;;15.75;8.55;;;;;;;;;;5047666;28;20041;-62
2023/05/25 06:00:53;;;;;;;18.23;9.77;;;;;;;;;;5049987;28;20103;-63
2023/05/25 06:03:20;;;;;;;27.05;10.52;;;;;;;;;;5053145;28;20136;-63
2023/05/25 06:05:46;;;;;;;21.08;8.93;;;;;;;;;;5051283;28;20049;-63
2023/05/25 06:08:12;;;;;;;15.20;10.13;;;;;;;;;;5052170;28;20153;-62
2023/05/25 06:10:39;;;;;;;17.52;9.00;;;;;;;;;;5048995;28;20045;-63
2023/05/25 06:13:08;;;;;;;20.80;11.00;;;;;;;;;;5044448;28;20165;-61
2023/05/25 06:15:35;;;;;;;14.75;8.65;;;;;;;;;;5043403;28;20041;-63
2023/05/25 06:18:01;;;;;;;24.75;10.68;;;;;;;;;;5046167;28;20124;-63
2023/05/25 06:20:27;;;;;;;13.88;7.35;;;;;;;;;;5042541;28;20128;-63
2023/05/25 06:22:53;;;;;;;21.20;8.80;;;;;;;;;;5044395;28;20060;-63
2023/05/25 06:25:19;;;;;;;13.07;7.53;;;;;;;;;;5038023;28;20505;-63
2023/05/25 06:27:46;;;;;;;10.98;6.97;;;;;;;;;;5050580;28;20041;-62
2023/05/25 06:30:12;;;;;;;16.13;6.97;;;;;;;;;;5041696;28;20033;-64
2023/05/25 06:32:38;;;;;;;16.73;6.43;;;;;;;;;;5044112;28;20294;-61
2023/05/25 06:35:04;;;;;;;13.43;6.80;;;;;;;;;;5050454;28;20341;-62
2023/05/25 06:37:36;;;;;;;13.07;5.45;;;;;;;;;;5044731;28;20056;-62
2023/05/25 06:40:04;;;;;;;16.58;5.38;;;;;;;;;;5043528;28;20036;-61
2023/05/25 06:42:30;;;;;;;17.17;5.70;;;;;;;;;;5044332;28;20055;-64
2023/05/25 06:44:56;;;;;;;16.80;5.85;;;;;;;;;;5044426;28;20283;-62
2023/05/25 06:47:22;;;;;;;14.38;6.40;;;;;;;;;;5049617;28;20471;-61
2023/05/25 06:49:49;;;;;;;13.73;5.53;;;;;;;;;;5049992;28;20048;-62
2023/05/25 06:52:15;;;;;;;10.07;5.75;;;;;;;;;;5046793;28;20505;-62
2023/05/25 06:54:41;;;;;;;16.00;5.85;;;;;;;;;;5051519;28;20037;-62
2023/05/25 06:57:07;;;;;;;13.80;6.03;;;;;;;;;;5038582;28;20044;-62
2023/05/25 06:59:33;;;;;;;18.83;5.63;;;;;;;;;;5047116;28;20443;-62
2023/05/25 07:02:06;;;;;;;12.00;6.38;;;;;;;;;;5044396;28;20040;-62
2023/05/25 07:04:33;;;;;;;11.25;4.88;;;;;;;;;;5053166;28;20045;-66
2023/05/25 07:06:59;;;;;;;14.23;5.60;;;;;;;;;;5049290;28;20077;-66
2023/05/25 07:09:25;;;;;;;12.68;6.03;;;;;;;;;;5052379;28;20136;-66
2023/05/25 07:11:52;;;;;;;13.00;6.20;;;;;;;;;;5049006;28;20477;-66
2023/05/25 07:14:18;;;;;;;12.05;6.03;;;;;;;;;;5049490;28;20549;-66
2023/05/25 07:16:44;;;;;;;14.07;5.40;;;;;;;;;;5045525;28;20180;-66
2023/05/25 07:19:11;;;;;;;17.15;6.55;;;;;;;;;;5048953;28;20044;-67
2023/05/25 07:21:37;;;;;;;15.93;5.53;;;;;;;;;;5034951;28;20057;-66
2023/05/25 07:24:03;;;;;;;24.25;6.47;;;;;;;;;;5039533;28;20079;-67
2023/05/25 07:26:33;;;;;;;22.52;7.10;;;;;;;;;;5048037;28;20529;-66
2023/05/25 07:28:59;;;;;;;22.52;6.45;;;;;;;;;;5041741;28;20067;-66
2023/05/25 07:31:26;;;;;;;21.20;7.57;;;;;;;;;;5044556;28;20392;-66
2023/05/25 07:33:54;;;;;;;19.10;7.40;;;;;;;;;;5053101;28;20045;-67
2023/05/25 07:36:20;;;;;;;18.52;7.13;;;;;;;;;;5049741;28;20079;-66
2023/05/25 07:38:46;;;;;;;13.80;6.53;;;;;;;;;;5051520;28;20043;-66
2023/05/25 07:41:13;;;;;;;13.73;5.70;;;;;;;;;;5047194;28;20041;-67
2023/05/25 07:43:39;;;;;;;19.70;7.90;;;;;;;;;;5048810;28;20130;-66
2023/05/25 07:46:06;;;;;;;23.77;6.72;;;;;;;;;;5040960;28;20103;-67
2023/05/25 07:48:32;;;;;;;16.25;6.90;;;;;;;;;;5042703;28;20050;-66
2023/05/25 07:50:58;;;;;;;14.02;6.55;;;;;;;;;;5039199;28;20121;-66
2023/05/25 07:53:25;;;;;;;13.90;6.45;;;;;;;;;;5047064;28;20037;-67
2023/05/25 07:55:51;;;;;;;19.90;6.10;;;;;;;;;;5042291;28;20045;-66
2023/05/25 07:58:17;;;;;;;19.38;6.32;;;;;;;;;;5048849;28;20093;-66
2023/05/25 08:00:43;;;;;;;22.23;6.78;;;;;;;;;;5047873;28;20116;-66
2023/05/25 08:03:10;;;;;;;24.35;7.20;;;;;;;;;;5046466;28;20040;-67
2023/05/25 08:05:36;;;;;;;16.85;5.75;;;;;;;;;;5042906;28;20383;-67
2023/05/25 08:08:02;;;;;;;22.27;7.32;;;;;;;;;;5038792;28;20456;-66
2023/05/25 08:10:31;;;;;;;14.95;6.57;;;;;;;;;;5047264;28;20457;-67
2023/05/25 08:12:57;;;;;;;20.60;6.22;;;;;;;;;;5048920;28;20083;-67
2023/05/25 08:15:25;;;;;;;16.70;6.22;;;;;;;;;;5047635;28;20110;-67
2023/05/25 08:17:51;;;;;;;14.50;6.18;;;;;;;;;;5045706;28;20470;-67
2023/05/25 08:20:17;;;;;;;18.85;6.35;;;;;;;;;;5038058;28;20080;-67
2023/05/25 08:22:44;;;;;;;16.98;6.80;;;;;;;;;;5045352;28;20128;-67
2023/05/25 08:25:10;;;;;;;12.20;5.95;;;;;;;;;;5038664;28;20107;-67
2023/05/25 08:27:36;;;;;;;15.23;6.65;;;13.40;99.90;;;;;;5038420;28;20095;-67
2023/05/25 08:30:04;;;;;;;14.68;5.88;;;;;;;;;;5046971;28;20106;-68
2023/05/25 08:32:30;;;;;;;16.40;5.47;;;;;;;;;;5045456;28;20060;-67
2023/05/25 08:34:57;;;;;;;22.80;6.53;;;;;;;;;;5045754;28;20045;-67
2023/05/25 08:37:23;;;;;;;14.40;6.30;;;;;;;;;;5045897;28;20536;-66
2023/05/25 08:39:50;;;;;;;18.38;6.60;;;;;;;;;;5047684;28;20055;-66
2023/05/25 08:42:16;;;;;;;18.33;7.55;;;;;;;;;;5045107;28;20038;-66
2023/05/25 08:44:42;;;;;;;20.55;6.05;;;;;;;;;;5030380;28;20099;-66
2023/05/25 08:47:10;;;;;;;16.23;6.72;;;;;;;;;;5046936;28;20133;-66
2023/05/25 08:49:40;;;;;;;18.67;5.95;;;;;;;;;;5040470;28;20045;-66
2023/05/25 08:52:10;;;;;;;17.75;6.88;;;;;;;;;;5055387;28;20108;-67
2023/05/25 08:54:37;;;;;;;19.48;5.55;;;;;;;;;;5045169;28;20068;-67
2023/05/25 08:57:14;;;;;;;18.80;7.40;;;;;;;;;;5047510;28;20124;-66
2023/05/25 08:59:47;;;;;;;16.70;6.28;;;;;;;;;;5036887;28;20311;-66
2023/05/25 09:02:13;;;;;;;21.63;6.68;;;;;;;;;;5035085;28;20127;-66
2023/05/25 09:04:39;;;;;;;16.92;5.88;;;;;;;;;;5040923;28;20094;-67
2023/05/25 09:07:06;;;;;;;15.90;6.13;;;;;;;;;;5040838;28;20045;-66
2023/05/25 09:09:34;;;;;;;19.20;6.03;;;;;;;;;;5043477;28;20044;-66
2023/05/25 09:12:01;;;;;;;22.98;5.70;;;;;;;;;;5038953;28;20040;-66
2023/05/25 09:14:27;;;;;;;17.52;6.15;;;;;;;;;;5045005;28;20072;-67
2023/05/25 09:16:53;;;;;;;16.63;6.10;;;;;;;;;;5044250;28;20048;-66
2023/05/25 09:19:20;;;;;;;13.88;6.28;;;;;;;;;;5041262;28;20108;-67
2023/05/25 09:21:46;;;;;;;13.65;4.97;;;;;;;;;;5045710;28;20120;-67
2023/05/25 09:24:12;;;;;;;19.30;6.50;;;;;;;;;;5045506;28;20086;-67
2023/05/25 09:26:38;;;;;;;10.07;4.40;;;;;;;;;;5045932;28;20055;-67
2023/05/25 09:29:04;;;;;;;19.75;6.82;;;;;;;;;;5046513;28;20385;-66
2023/05/25 09:31:31;;;;;;;15.38;5.93;;;;;;;;;;5044251;28;20107;-67
2023/05/25 09:34:00;;;;;;;10.45;4.95;;;;;;;;;;5044445;28;20038;-67
2023/05/25 09:36:26;;;;;;;19.27;6.70;;;;;;;;;;5036408;28;20511;-66
2023/05/25 09:38:53;;;;;;;19.38;5.55;;;;;;;;;;5033138;28;20049;-67
2023/05/25 09:41:20;;;;;;;13.30;4.88;;;;;;;;;;5042166;28;20040;-66
2023/05/25 09:43:47;;;;;;;17.08;5.82;;;;;;;;;;5045112;28;20476;-67
2023/05/25 09:46:13;;;;;;;12.35;5.70;;;;;;;;;;5044024;28;20057;-67
2023/05/25 09:48:40;;;;;;;17.90;6.38;;;;;;;;;;5038974;28;20072;-66
2023/05/25 09:51:07;;;;;;;15.95;5.72;;;;;;;;;;5044302;28;20120;-67
2023/05/25 09:53:33;;;;;;;11.63;4.88;;;;;;;;;;5044785;28;20075;-67
2023/05/25 09:56:00;;;;;;;17.95;5.05;;;;;;;;;;5040773;28;20622;-67
2023/05/25 09:58:27;;;;;;;22.90;6.18;;;;;;;;;;5045128;28;20434;-67
2023/05/25 10:00:54;;;;;;;24.10;7.25;;;;;;;;;;5042070;28;20080;-67
2023/05/25 10:03:20;;;;;;;22.45;7.22;;;;;;;;;;5040874;28;20049;-67
2023/05/25 10:05:47;;;;;;;22.98;6.95;;;;;;;;;;5045859;28;20046;-67
2023/05/25 10:08:13;;;;;;;18.95;7.03;;;;;;;;;;5034331;28;20549;-67
2023/05/25 10:10:41;;;;;;;16.15;6.20;;;;;;;;;;5039842;28;20121;-67
2023/05/25 10:13:08;;;;;;;16.52;6.32;;;;;;;;;;5047929;28;20033;-67
2023/05/25 10:15:36;;;;;;;29.98;9.23;;;;;;;;;;5037956;28;20045;-67
2023/05/25 10:18:03;;;;;;;19.23;7.15;;;;;;;;;;5036114;28;20088;-67
2023/05/25 10:20:30;;;;;;;18.30;5.72;;;;;;;;;;5047071;28;20499;-67
2023/05/25 10:22:59;;;;;;;11.80;6.28;;;;;;;;;;5047005;28;20037;-67
2023/05/25 10:25:26;;;;;;;18.67;6.10;;;;;;;;;;5040616;28;20033;-67
2023/05/25 10:27:52;;;;;;;15.30;5.75;;;;;;;;;;5041665;28;20048;-67
2023/05/25 10:30:18;;;;;;;19.70;5.90;;;;;;;;;;5045561;28;20466;-67
2023/05/25 10:32:46;;;;;;;16.40;5.70;;;;;;;;;;5042779;28;20034;-66
2023/05/25 10:35:13;;;;;;;15.20;6.15;;;;;;;;;;5050739;28;20060;-67
2023/05/25 10:37:39;;;;;;;17.20;6.03;;;;;;;;;;5051143;28;20128;-67
2023/05/25 10:40:09;;;;;;;20.73;8.23;;;;;;;;;;5048276;28;20107;-67
2023/05/25 10:42:37;;;;;;;22.48;7.55;;;;;;;;;;5047242;28;20264;-67
2023/05/25 10:45:04;;;;;;;15.85;5.95;;;;;;;;;;5045580;28;20547;-67
2023/05/25 10:47:31;;;;;;;17.38;6.35;;;;;;;;;;5049355;28;20089;-67
2023/05/25 10:49:58;;;;;;;21.33;6.82;;;;;;;;;;5049344;28;20121;-66
2023/05/25 10:52:28;;;;;;;17.88;6.35;;;;;;;;;;5047755;28;20039;-67
2023/05/25 10:54:55;;;;;;;13.95;5.97;;;;;;;;;;5050025;28;20064;-67
2023/05/25 10:57:23;;;;;;;18.80;6.55;;;;;;;;;;5051556;28;20064;-67
2023/05/25 10:59:50;;;;;;;15.85;5.75;;;;;;;;;;5053624;28;20047;-67
2023/05/25 11:02:17;;;;;;;16.08;5.47;;;;;;;;;;5047271;28;20071;-67
2023/05/25 11:04:46;;;;;;;23.27;8.98;;;;;;;;;;5054125;28;20101;-67
2023/05/25 11:07:15;;;;;;;17.30;6.72;;;;;;;;;;5045606;28;20036;-67
2023/05/25 11:09:42;;;;;;;17.30;6.00;;;;;;;;;;5049824;28;20044;-67
2023/05/25 11:12:17;;;;;;;15.18;6.00;;;;;;;;;;5051057;28;20044;-67
2023/05/25 11:14:43;;;;;;;21.65;7.38;;;;;;;;;;5045033;28;20036;-66
2023/05/25 11:17:12;;;;;;;18.50;6.35;;;;;;;;;;5051885;28;20391;-67
2023/05/25 11:19:46;;;;;;;21.45;6.70;;;;;;;;;;5055236;28;20140;-66
2023/05/25 11:22:16;;;;;;;19.88;7.50;;;;;;;;;;5052384;28;20087;-67
2023/05/25 11:24:44;;;;;;;18.77;6.72;;;;;;;;;;5040907;28;20044;-67
2023/05/25 11:27:10;;;;;;;20.35;6.78;;;;;;;;;;5048734;28;20047;-67
2023/05/25 11:29:38;;;;;;;16.73;7.68;;;;;;;;;;5049831;28;20044;-67
2023/05/25 11:32:05;;;;;;;13.98;6.47;;;;;;;;;;5053919;28;21309;-67
2023/05/25 11:34:31;;;;;;;17.77;6.63;;;;;;;;;;5051571;28;20725;-67
2023/05/25 11:37:02;;;;;;;17.63;6.75;;;;;;;;;;5055192;28;20599;-67
2023/05/25 11:39:29;;;;;;;27.00;7.55;;;;;;;;;;5043684;28;20355;-67
2023/05/25 11:41:56;;;;;;;26.80;7.68;;;;;;;;;;5051752;28;20116;-67
2023/05/25 11:44:27;;;;;;;19.52;8.13;;;;;;;;;;5051948;28;20037;-67
2023/05/25 11:46:56;;;;;;;14.95;5.70;;;;;;;;;;5050825;28;20064;-67
2023/05/25 11:49:23;;;;;;;20.92;6.60;;;;;;;;;;5049813;28;20044;-67
2023/05/25 11:51:49;;;;;;;16.30;6.38;;;;;;;;;;5049426;28;20110;-67
2023/05/25 11:54:25;;;;;;;23.58;6.85;;;;;;;;;;5049885;28;20044;-67
2023/05/25 11:56:52;;;;;;;18.33;8.27;;;;;;;;;;5049320;28;20185;-67
2023/05/25 11:59:19;;;;;;;23.17;7.07;;;;;;;;;;5038782;28;20596;-67
2023/05/25 12:01:55;;;;;;;18.27;6.53;;;;;;;;;;5047324;28;20249;-67
2023/05/25 12:04:21;;;;;;;14.13;5.50;;;;;;;;;;5049615;28;20068;-67
2023/05/25 12:06:48;;;;;;;23.17;7.75;;;;;;;;;;5041867;28;20223;-67
2023/05/25 12:09:18;;;;;;;17.98;7.43;;;;;;;;;;5031852;28;20396;-67
2023/05/25 12:11:44;;;;;;;17.83;5.85;;;;;;;;;;5048861;28;20494;-67
2023/05/25 12:14:11;;;;;;;15.63;6.45;;;;;;;;;;5048555;28;20516;-67
2023/05/25 12:16:37;;;;;;;20.73;7.38;;;;;;;;;;5047155;28;20045;-66
2023/05/25 12:19:05;;;;;;;16.15;7.35;;;;;;;;;;5053043;28;20113;-66
2023/05/25 12:21:31;;;;;;;19.88;6.65;;;;;;;;;;5049930;28;20041;-69
2023/05/25 12:23:59;;;;;;;22.40;7.45;;;;;;;;;;5049047;28;20041;-66
2023/05/25 12:26:25;;;;;;;20.23;6.88;;;;;;;;;;5041312;28;20045;-67
2023/05/25 12:29:01;;;;;;;19.23;6.93;;;;;;;;;;5042953;28;20033;-66
2023/05/25 12:31:28;;;;;;;20.80;6.75;;;;;;;;;;5047569;28;20135;-65
2023/05/25 12:34:08;;;;;;;18.13;7.00;;;;;;;;;;5045938;28;20035;-63
2023/05/25 12:36:42;;;;;;;21.42;7.93;;;;;;;;;;5042105;28;20045;-64
2023/05/25 12:39:09;;;;;;;21.38;6.40;;;;;;;;;;5045111;28;20246;-64
2023/05/25 12:41:45;;;;;;;19.85;7.63;;;;;;;;;;5047200;28;20048;-63
2023/05/25 12:44:30;;;;;;;21.85;6.40;;;;;;;;;;5043574;28;20038;-64
2023/05/25 12:46:57;;;;;;;14.50;5.85;;;;;;;;;;5043673;28;20556;-64
2023/05/25 12:49:27;;;;;;;18.67;7.28;;;;;;;;;;5047215;28;20459;-63
2023/05/25 12:51:54;;;;;;;17.55;7.28;;;;;;;;;;5046201;28;20043;-64
2023/05/25 12:54:52;;;;;;;23.52;6.65;;;;;;;;;;5048405;28;20037;-64
2023/05/25 12:57:18;;;;;;;27.70;8.73;;;;;;;;;;5034262;28;20048;-66
2023/05/25 12:59:46;;;;;;;17.17;6.68;;;;;;;;;;5038503;28;20538;-66
2023/05/25 13:02:12;;;;;;;18.88;7.38;;;;;;;;;;5041169;28;20037;-65
2023/05/25 13:04:39;;;;;;;24.38;9.02;;;;;;;;;;5035187;28;20032;-66
2023/05/25 13:07:07;;;;;;;18.58;8.57;;;;;;;;;;5047914;28;20348;-66
2023/05/25 13:09:33;;;;;;;21.08;6.35;;;;;;;;;;5047075;28;20048;-66
2023/05/25 13:12:01;;;;;;;26.40;6.88;;;;;;;;;;5048696;28;20147;-66
2023/05/25 13:14:28;;;;;;;20.17;6.93;;;;;;;;;;5044434;28;20047;-66
2023/05/25 13:16:55;;;;;;;21.90;8.25;;;;;;;;;;5038149;28;20093;-66
2023/05/25 13:19:23;;;;;;;21.92;8.82;;;;;;;;;;5044903;28;20052;-67
2023/05/25 13:21:50;;;;;;;19.00;7.68;;;;;;;;;;5039993;28;20041;-67
2023/05/25 13:24:18;;;;;;;13.85;6.15;;;;;;;;;;5045930;28;20458;-67
2023/05/25 13:26:44;;;;;;;31.92;8.90;;;;;;;;;;5047398;28;20053;-67
2023/05/25 13:29:11;;;;;;;18.60;7.40;;;;;;;;;;5047917;28;20069;-67
2023/05/25 13:31:37;;;;;;;22.17;7.63;;;;;;;;;;5046221;28;20683;-66
2023/05/25 13:34:04;;;;;;;17.38;7.18;;;;;;;;;;5046963;28;20275;-67
2023/05/25 13:36:33;;;;;;;18.63;7.20;;;;;;;;;;5041119;28;20520;-67
2023/05/25 13:38:59;;;;;;;23.52;7.55;;;;;;;;;;5037137;28;20095;-69
2023/05/25 13:41:26;;;;;;;13.52;6.47;;;;;;;;;;5039729;28;20442;-70
2023/05/25 13:43:52;;;;;;;27.80;7.00;;;;;;;;;;5046526;28;20059;-70
2023/05/25 13:46:18;;;;;;;17.38;6.50;;;;;;;;;;5041234;28;20119;-70
2023/05/25 13:48:47;;;;;;;20.35;6.88;;;;;;;;;;5037427;28;20052;-69
2023/05/25 13:51:14;;;;;;;21.60;7.80;;;;;;;;;;5048170;28;20132;-69
2023/05/25 13:53:40;;;;;;;17.60;6.35;;;;;;;;;;5044967;28;20116;-69
2023/05/25 13:56:07;;;;;;;14.70;6.28;;;;;;;;;;5049225;28;20573;-69
2023/05/25 13:58:33;;;;;;;21.63;6.95;;;;;;;;;;5034038;28;20045;-69
2023/05/25 14:00:59;;;;;;;84.72;15.32;;;;;;;;;;5040366;28;20193;-69
2023/05/25 14:03:25;;;;;;;24.80;8.38;;;;;;;;;;5041243;28;20451;-70
2023/05/25 14:05:52;;;;;;;15.48;6.45;;;;;;;;;;5038526;28;20037;-69
2023/05/25 14:08:18;;;;;;;17.85;6.05;;;;;;;;;;5042028;28;20387;-68
2023/05/25 14:10:45;;;;;;;15.93;6.97;;;;;;;;;;5050362;28;20441;-68
2023/05/25 14:13:11;;;;;;;23.65;6.50;;;;;;;;;;5045404;28;20406;-68
2023/05/25 14:15:37;;;;;;;17.95;7.10;;;;;;;;;;5026171;28;20049;-68
2023/05/25 14:18:03;;;;;;;17.40;6.85;;;;;;;;;;5049500;28;20044;-68
2023/05/25 14:20:32;;;;;;;14.90;7.38;;;;;;;;;;5051007;28;20047;-68
2023/05/25 14:23:00;;;;;;;19.77;5.95;;;;;;;;;;5050160;28;20052;-68
2023/05/25 14:25:26;;;;;;;16.05;6.18;;;;;;;;;;5051934;28;20045;-69
2023/05/25 14:27:52;;;;;;;19.20;6.95;;;;;;;;;;5035934;28;20457;-69
2023/05/25 14:30:19;;;;;;;13.93;6.38;;;;;;;;;;5045891;28;20440;-70